Time;durP1;ratioP1;P1;durP2;ratioP2;P2;SDS_P1;SDS_P2;PMS_P1;PMS_P2;Temp;Humidity;BMP_temperature;BMP_pressure;BME280_temperature;BME280_humidity;BME280_pressure;Samples;Min_cycle;Max_cycle;Signal;HPM_P1;HPM_P2
2022/12/04 00:01:25;;;;;;;;;;;7.00;55.00;;;;;;4990632;28;19921;-88
2022/12/04 00:03:52;;;;;;;;;;;7.10;55.00;;;;;;4990224;28;19921;-87
2022/12/04 00:06:18;;;;;;;;;;;7.10;55.10;;;;;;5005479;28;19989;-87
2022/12/04 00:08:44;;;;;;;;;;;7.10;54.90;;;;;;5012637;28;20341;-88
2022/12/04 00:11:10;;;;;;;;;;;7.00;54.90;;;;;;4986797;28;19917;-89
2022/12/04 00:13:36;;;;;;;;;;;7.10;54.90;;;;;;4985365;28;19964;-88
2022/12/04 00:16:06;;;;;;;;;;;7.10;55.00;;;;;;4989798;28;19930;-88
2022/12/04 00:18:31;;;;;;;;;;;7.10;54.90;;;;;;4982682;28;19914;-88
2022/12/04 00:20:57;;;;;;;;;;;7.10;55.00;;;;;;5001751;28;19929;-88
2022/12/04 00:23:22;;;;;;;;;;;7.10;55.00;;;;;;5004164;28;20000;-89
2022/12/04 00:25:48;;;;;;;;;;;7.10;55.10;;;;;;5010776;28;20000;-88
2022/12/04 00:28:15;;;;;;;;;;;7.10;55.20;;;;;;4991669;28;19988;-88
2022/12/04 00:30:41;;;;;;;;;;;7.10;54.90;;;;;;4989167;28;19917;-88
2022/12/04 00:33:07;;;;;;;;;;;7.10;55.00;;;;;;5007186;28;19922;-88
2022/12/04 00:35:32;;;;;;;;;;;7.10;55.10;;;;;;4990197;28;19956;-88
2022/12/04 00:37:58;;;;;;;;;;;7.10;55.20;;;;;;4981764;28;20339;-91
2022/12/04 00:40:23;;;;;;;;;;;7.10;55.30;;;;;;4981725;28;19942;-88
2022/12/04 00:42:49;;;;;;;;;;;7.10;55.40;;;;;;5006000;28;19924;-88
2022/12/04 00:45:14;;;;;;;;;;;7.10;55.30;;;;;;4986363;28;20637;-89
2022/12/04 00:47:40;;;;;;;;;;;7.10;55.40;;;;;;4987461;28;19957;-89
2022/12/04 00:50:06;;;;;;;;;;;7.10;55.30;;;;;;4984055;28;19917;-89
2022/12/04 00:52:34;;;;;;;;;;;7.10;55.40;;;;;;5002044;28;20312;-88
2022/12/04 00:54:59;;;;;;;;;;;7.00;55.50;;;;;;4985141;28;19977;-87
2022/12/04 00:57:25;;;;;;;;;;;7.00;55.40;;;;;;4984917;28;19922;-88
2022/12/04 00:59:50;;;;;;;;;;;7.00;55.50;;;;;;4978865;28;20215;-89
2022/12/04 01:02:16;;;;;;;;;;;7.00;55.50;;;;;;4980924;28;19924;-88
2022/12/04 01:04:44;;;;;;;;;;;7.00;55.60;;;;;;4982303;28;19924;-88
2022/12/04 01:07:11;;;;;;;;;;;7.00;55.50;;;;;;4986968;28;20400;-87
2022/12/04 01:09:36;;;;;;;;;;;7.00;55.50;;;;;;5017369;28;19917;-87
2022/12/04 01:12:05;;;;;;;;;;;7.00;55.60;;;;;;4994001;28;20328;-88
2022/12/04 01:14:30;;;;;;;;;;;7.00;55.50;;;;;;4995431;28;20039;-89
2022/12/04 01:16:56;;;;;;;;;;;7.00;55.70;;;;;;4999319;28;20004;-88
2022/12/04 01:19:22;;;;;;;;;;;7.00;55.70;;;;;;4994021;28;19931;-88
2022/12/04 01:21:48;;;;;;;;;;;7.00;55.80;;;;;;4999569;28;19917;-89
2022/12/04 01:24:13;;;;;;;;;;;7.00;55.60;;;;;;5001127;28;20096;-88
2022/12/04 01:26:39;;;;;;;;;;;7.00;55.70;;;;;;4999527;28;20004;-88
2022/12/04 01:29:05;;;;;;;;;;;7.10;55.70;;;;;;4990742;28;19925;-88
2022/12/04 01:31:30;;;;;;;;;;;7.10;55.50;;;;;;4990367;28;20289;-89
2022/12/04 01:33:56;;;;;;;;;;;7.00;55.40;;;;;;5008986;28;19921;-89
2022/12/04 01:36:24;;;;;;;;;;;7.00;55.30;;;;;;5002154;28;20007;-88
2022/12/04 01:38:50;;;;;;;;;;;7.00;55.40;;;;;;5017990;28;19967;-89
2022/12/04 01:41:18;;;;;;;;;;;7.00;55.60;;;;;;5011442;28;19913;-88
2022/12/04 01:43:44;;;;;;;;;;;7.00;55.60;;;;;;5005706;28;19980;-87
2022/12/04 01:46:10;;;;;;;;;;;7.00;55.50;;;;;;4989655;28;19920;-89
2022/12/04 01:48:42;;;;;;;;;;;7.00;55.50;;;;;;4992902;28;19925;-87
2022/12/04 01:51:34;;;;;;;;;;;6.90;55.50;;;;;;5005593;28;19953;-88
2022/12/04 01:54:01;;;;;;;;;;;6.90;55.70;;;;;;4992158;28;19925;-88
2022/12/04 01:56:31;;;;;;;;;;;6.90;55.70;;;;;;4996110;28;19917;-87
2022/12/04 01:59:00;;;;;;;;;;;6.90;55.70;;;;;;5014660;28;20024;-88
2022/12/04 02:01:28;;;;;;;;;;;6.90;55.60;;;;;;4997177;28;19913;-88
2022/12/04 02:03:53;;;;;;;;;;;6.90;55.70;;;;;;5023550;28;19921;-89
2022/12/04 02:06:19;;;;;;;;;;;6.90;55.60;;;;;;5006364;28;19967;-89
2022/12/04 02:08:44;;;;;;;;;;;6.80;55.50;;;;;;5026020;28;19921;-89
2022/12/04 02:11:34;;;;;;;;;;;6.80;55.60;;;;;;5007733;28;20482;-89
2022/12/04 02:14:00;;;;;;;;;;;6.80;55.60;;;;;;4998924;28;19922;-87
2022/12/04 02:16:39;;;;;;;;;;;6.80;55.70;;;;;;5008752;28;19921;-87
2022/12/04 02:19:31;;;;;;;;;;;6.80;55.70;;;;;;5008211;28;20392;-88
2022/12/04 02:21:58;;;;;;;;;;;6.80;55.70;;;;;;5003534;28;20599;-89
2022/12/04 02:24:46;;;;;;;;;;;6.80;55.60;;;;;;5011444;28;19928;-89
2022/12/04 02:27:15;;;;;;;;;;;6.70;55.50;;;;;;5002626;28;20533;-89
2022/12/04 02:29:59;;;;;;;;;;;6.80;55.50;;;;;;5004983;28;19929;-89
2022/12/04 02:32:35;;;;;;;;;;;6.70;55.50;;;;;;4995195;28;19918;-89
2022/12/04 02:35:03;;;;;;;;;;;6.70;55.70;;;;;;4998351;28;19984;-88
2022/12/04 02:37:33;;;;;;;;;;;6.70;55.60;;;;;;5016415;28;20419;-89
2022/12/04 02:40:05;;;;;;;;;;;6.70;55.50;;;;;;5016143;28;19964;-88
2022/12/04 02:42:49;;;;;;;;;;;6.70;55.40;;;;;;4998733;28;19917;-88
2022/12/04 02:45:20;;;;;;;;;;;6.70;55.40;;;;;;5014924;28;19925;-88
2022/12/04 02:47:46;;;;;;;;;;;6.70;55.60;;;;;;5000438;28;19918;-89
2022/12/04 02:50:13;;;;;;;;;;;6.70;55.40;;;;;;5000402;28;19909;-89
2022/12/04 02:53:08;;;;;;;;;;;6.70;55.20;;;;;;5003347;28;19933;-88
2022/12/04 02:55:38;;;;;;;;;;;6.70;55.30;;;;;;4982357;28;19929;-88
2022/12/04 02:58:22;;;;;;;;;;;6.80;55.30;;;;;;4998236;28;19918;-88
2022/12/04 03:00:52;;;;;;;;;;;6.80;55.10;;;;;;5009987;28;20007;-89
2022/12/04 03:03:21;;;;;;;;;;;6.70;55.10;;;;;;5007918;28;19922;-89
2022/12/04 03:05:59;;;;;;;;;;;6.70;55.20;;;;;;4999837;28;19920;-87
2022/12/04 03:08:37;;;;;;;;;;;6.70;55.00;;;;;;4988007;28;19960;-88
2022/12/04 03:11:03;;;;;;;;;;;6.70;55.00;;;;;;5005790;28;20491;-89
2022/12/04 03:13:35;;;;;;;;;;;6.80;55.10;;;;;;5016701;28;19917;-89
2022/12/04 03:16:04;;;;;;;;;;;6.80;55.00;;;;;;5001267;28;20013;-89
2022/12/04 03:18:36;;;;;;;;;;;6.80;55.00;;;;;;5004408;28;19944;-89
2022/12/04 03:21:05;;;;;;;;;;;6.80;55.00;;;;;;4998845;28;19920;-88
2022/12/04 03:23:36;;;;;;;;;;;6.80;55.00;;;;;;5000982;28;19921;-88
2022/12/04 03:26:07;;;;;;;;;;;6.80;55.00;;;;;;5007836;28;19909;-88
2022/12/04 03:28:36;;;;;;;;;;;6.70;55.00;;;;;;5004899;28;19909;-88
2022/12/04 03:31:04;;;;;;;;;;;6.70;55.10;;;;;;5028508;28;19909;-88
2022/12/04 03:33:33;;;;;;;;;;;6.80;55.10;;;;;;5006502;28;19913;-88
2022/12/04 03:36:04;;;;;;;;;;;6.80;55.20;;;;;;5003752;28;19930;-87
2022/12/04 03:38:30;;;;;;;;;;;6.80;55.00;;;;;;4996934;28;19918;-88
2022/12/04 03:41:01;;;;;;;;;;;6.80;55.10;;;;;;4982794;28;19954;-88
2022/12/04 03:43:30;;;;;;;;;;;6.80;55.30;;;;;;5003889;28;19996;-88
2022/12/04 03:46:04;;;;;;;;;;;6.80;55.30;;;;;;5029510;28;19999;-89
2022/12/04 03:48:42;;;;;;;;;;;6.80;55.40;;;;;;4999927;28;19925;-88
2022/12/04 03:51:18;;;;;;;;;;;6.80;55.40;;;;;;4999594;28;19909;-88
2022/12/04 03:53:53;;;;;;;;;;;6.80;55.40;;;;;;5001188;28;20008;-88
2022/12/04 03:56:21;;;;;;;;;;;6.80;55.50;;;;;;5006846;28;19918;-89
2022/12/04 03:58:49;;;;;;;;;;;6.80;55.50;;;;;;5013752;28;19910;-89
2022/12/04 04:01:17;;;;;;;;;;;6.80;55.50;;;;;;4995541;28;20272;-88
2022/12/04 04:03:46;;;;;;;;;;;6.80;55.50;;;;;;4995304;28;19917;-88
2022/12/04 04:06:14;;;;;;;;;;;6.80;55.60;;;;;;4997480;28;20335;-88
2022/12/04 04:08:42;;;;;;;;;;;6.80;55.70;;;;;;5006814;28;20495;-88
2022/12/04 04:11:15;;;;;;;;;;;6.80;55.70;;;;;;5018197;28;20004;-88
2022/12/04 04:24:57;;;;;;;;;;;6.80;55.80;;;;;;5009348;28;19916;-89
2022/12/04 04:27:23;;;;;;;;;;;6.80;55.80;;;;;;5015609;28;20533;-88
2022/12/04 04:29:49;;;;;;;;;;;6.80;55.90;;;;;;5028448;28;19913;-87
2022/12/04 04:32:44;;;;;;;;;;;6.80;55.90;;;;;;5014910;28;19921;-88
2022/12/04 04:35:17;;;;;;;;;;;6.80;55.90;;;;;;5002844;28;19971;-89
2022/12/04 04:38:02;;;;;;;;;;;6.80;55.90;;;;;;5018558;28;19917;-88
2022/12/04 04:40:45;;;;;;;;;;;6.80;55.90;;;;;;4992484;28;20004;-89
2022/12/04 04:43:10;;;;;;;;;;;6.80;55.80;;;;;;5006693;28;19917;-88
2022/12/04 04:45:42;;;;;;;;;;;6.90;55.90;;;;;;5000226;28;19924;-88
2022/12/04 04:48:18;;;;;;;;;;;6.90;55.90;;;;;;5007450;28;19918;-89
2022/12/04 04:50:44;;;;;;;;;;;6.80;55.90;;;;;;5011272;28;20443;-88
2022/12/04 04:53:16;;;;;;;;;;;6.90;55.80;;;;;;5022652;28;20454;-88
2022/12/04 04:55:42;;;;;;;;;;;6.90;55.80;;;;;;5019220;28;19917;-89
2022/12/04 04:58:12;;;;;;;;;;;7.00;55.80;;;;;;5019962;28;19917;-88
2022/12/04 05:00:38;;;;;;;;;;;6.90;55.70;;;;;;5004896;28;19981;-88
2022/12/04 05:03:04;;;;;;;;;;;7.00;55.70;;;;;;4996653;28;19918;-88
2022/12/04 05:05:30;;;;;;;;;;;7.00;55.60;;;;;;5005109;28;19909;-88
2022/12/04 05:07:55;;;;;;;;;;;7.00;55.60;;;;;;4994534;28;20333;-88
2022/12/04 05:10:21;;;;;;;;;;;7.00;55.70;;;;;;5004687;28;19932;-87
2022/12/04 05:12:46;;;;;;;;;;;7.00;55.60;;;;;;4995021;28;19953;-88
2022/12/04 05:15:12;;;;;;;;;;;7.00;55.60;;;;;;5010198;28;19921;-88
2022/12/04 05:17:38;;;;;;;;;;;7.00;55.70;;;;;;4998081;28;19918;-88
2022/12/04 05:20:04;;;;;;;;;;;7.00;55.70;;;;;;4999548;28;20396;-89
2022/12/04 05:22:36;;;;;;;;;;;7.00;55.60;;;;;;4992444;28;20439;-87
2022/12/04 05:25:02;;;;;;;;;;;7.00;55.70;;;;;;4988901;28;19917;-88
2022/12/04 05:27:28;;;;;;;;;;;7.00;55.80;;;;;;5008704;28;20419;-89
2022/12/04 05:29:54;;;;;;;;;;;7.10;55.70;;;;;;5014972;28;20384;-89
2022/12/04 05:32:21;;;;;;;;;;;7.10;55.60;;;;;;5016632;28;19921;-88
2022/12/04 05:34:47;;;;;;;;;;;7.10;55.60;;;;;;5030555;28;20307;-88
2022/12/04 05:37:13;;;;;;;;;;;7.10;55.60;;;;;;5007921;28;19921;-89
2022/12/04 05:39:38;;;;;;;;;;;7.10;55.60;;;;;;5033084;28;19960;-89
2022/12/04 05:42:04;;;;;;;;;;;7.20;55.60;;;;;;5014729;28;19928;-88
2022/12/04 05:44:29;;;;;;;;;;;7.20;55.50;;;;;;5013546;28;19928;-88
2022/12/04 05:46:55;;;;;;;;;;;7.20;55.30;;;;;;4993063;28;20360;-89
2022/12/04 05:49:20;;;;;;;;;;;7.10;55.30;;;;;;5024542;28;20312;-88
2022/12/04 05:51:48;;;;;;;;;;;7.10;55.20;;;;;;5011328;28;19952;-88
2022/12/04 05:54:13;;;;;;;;;;;7.10;55.30;;;;;;4993646;28;19913;-88
2022/12/04 05:56:39;;;;;;;;;;;7.10;55.30;;;;;;5000572;28;19925;-88
2022/12/04 05:59:05;;;;;;;;;;;7.10;55.40;;;;;;5001581;28;19920;-88
2022/12/04 06:01:30;;;;;;;;;;;7.10;55.50;;;;;;4994459;28;20377;-89
2022/12/04 06:03:56;;;;;;;;;;;7.20;55.40;;;;;;4997334;28;19984;-89
2022/12/04 06:06:23;;;;;;;;;;;7.20;55.30;;;;;;5012285;28;19953;-88
2022/12/04 06:08:50;;;;;;;;;;;7.20;55.30;;;;;;5021130;28;19927;-88
2022/12/04 06:11:17;;;;;;;;;;;7.20;55.40;;;;;;5023357;28;20320;-88
2022/12/04 06:13:43;;;;;;;;;;;7.20;55.30;;;;;;5014657;28;19916;-88
2022/12/04 06:16:16;;;;;;;;;;;7.20;55.30;;;;;;4997040;28;20020;-88
2022/12/04 06:18:42;;;;;;;;;;;7.20;55.10;;;;;;5021809;28;19916;-89
2022/12/04 06:21:08;;;;;;;;;;;7.20;55.20;;;;;;5004498;28;20384;-87
2022/12/04 06:23:34;;;;;;;;;;;7.20;55.10;;;;;;4997342;28;20367;-87
2022/12/04 06:26:07;;;;;;;;;;;7.20;55.00;;;;;;4996350;28;19996;-88
2022/12/04 06:28:33;;;;;;;;;;;7.20;55.10;;;;;;5000986;28;19967;-88
2022/12/04 06:31:02;;;;;;;;;;;7.20;55.00;;;;;;5001807;28;20008;-88
2022/12/04 06:33:29;;;;;;;;;;;7.20;55.00;;;;;;5004091;28;20368;-88
2022/12/04 06:36:02;;;;;;;;;;;7.20;55.00;;;;;;5008658;28;19929;-89
2022/12/04 06:38:28;;;;;;;;;;;7.20;55.00;;;;;;4991279;28;19948;-89
2022/12/04 06:40:54;;;;;;;;;;;7.20;55.00;;;;;;4985568;28;19909;-89
2022/12/04 06:43:20;;;;;;;;;;;7.20;55.00;;;;;;4992528;28;19920;-88
2022/12/04 06:45:45;;;;;;;;;;;7.20;55.00;;;;;;4997092;28;20253;-89
2022/12/04 06:48:11;;;;;;;;;;;7.20;55.10;;;;;;5024335;28;20411;-89
2022/12/04 06:50:36;;;;;;;;;;;7.20;55.10;;;;;;5001257;28;19985;-88
2022/12/04 06:53:02;;;;;;;;;;;7.20;55.10;;;;;;5007566;28;19997;-88
2022/12/04 06:55:28;;;;;;;;;;;7.20;55.10;;;;;;5016302;28;19950;-88
2022/12/04 06:57:53;;;;;;;;;;;7.20;55.10;;;;;;5032044;28;19918;-88
2022/12/04 07:00:19;;;;;;;;;;;7.20;55.10;;;;;;5012723;28;19944;-88
2022/12/04 07:02:44;;;;;;;;;;;7.20;55.00;;;;;;5022622;28;19918;-88
2022/12/04 07:05:10;;;;;;;;;;;7.20;55.00;;;;;;5003556;28;19910;-89
2022/12/04 07:07:35;;;;;;;;;;;7.20;55.20;;;;;;5011863;28;20352;-90
2022/12/04 07:10:02;;;;;;;;;;;7.20;55.30;;;;;;4996291;28;20020;-89
2022/12/04 07:12:27;;;;;;;;;;;7.20;55.30;;;;;;4997093;28;19933;-89
2022/12/04 07:14:53;;;;;;;;;;;7.30;55.20;;;;;;4982794;28;20381;-88
2022/12/04 07:17:19;;;;;;;;;;;7.20;55.30;;;;;;4997787;28;20380;-88
2022/12/04 07:19:45;;;;;;;;;;;7.20;55.30;;;;;;5002682;28;20431;-88
2022/12/04 07:22:11;;;;;;;;;;;7.20;55.40;;;;;;5011737;28;19924;-88
2022/12/04 07:24:36;;;;;;;;;;;7.20;55.40;;;;;;5021363;28;19909;-89
2022/12/04 07:27:02;;;;;;;;;;;7.20;55.40;;;;;;5022103;28;20575;-88
2022/12/04 07:29:28;;;;;;;;;;;7.20;55.40;;;;;;5028611;28;19999;-89
2022/12/04 07:31:54;;;;;;;;;;;7.20;55.40;;;;;;5000349;28;19972;-89
2022/12/04 07:34:20;;;;;;;;;;;7.20;55.30;;;;;;5015299;28;19948;-88
2022/12/04 07:36:45;;;;;;;;;;;7.30;55.40;;;;;;5001277;28;19984;-90
2022/12/04 07:39:11;;;;;;;;;;;7.30;55.40;;;;;;4995918;28;19909;-89
2022/12/04 07:41:37;;;;;;;;;;;7.30;55.30;;;;;;5035015;28;20489;-89
2022/12/04 07:44:02;;;;;;;;;;;7.30;55.20;;;;;;4999522;28;19989;-89
2022/12/04 07:46:28;;;;;;;;;;;7.30;55.10;;;;;;4997823;28;19922;-89
2022/12/04 07:48:54;;;;;;;;;;;7.30;55.10;;;;;;4995474;28;19917;-88
2022/12/04 07:51:21;;;;;;;;;;;7.30;55.20;;;;;;5009453;28;19910;-88
2022/12/04 07:53:47;;;;;;;;;;;7.30;55.10;;;;;;5029612;28;19909;-89
2022/12/04 07:56:12;;;;;;;;;;;7.30;55.30;;;;;;5005376;28;20425;-88
2022/12/04 07:58:39;;;;;;;;;;;7.30;55.40;;;;;;5002499;28;20292;-88
2022/12/04 08:01:09;;;;;;;;;;;7.30;55.40;;;;;;4996820;28;20000;-88
2022/12/04 08:03:35;;;;;;;;;;;7.30;55.30;;;;;;5007962;28;20016;-88
2022/12/04 08:06:04;;;;;;;;;;;7.40;55.50;;;;;;5007288;28;20014;-90
2022/12/04 08:08:30;;;;;;;;;;;7.40;55.50;;;;;;4998151;28;19922;-89
2022/12/04 08:10:55;;;;;;;;;;;7.40;55.50;;;;;;4990225;28;20293;-87
2022/12/04 08:13:21;;;;;;;;;;;7.40;55.40;;;;;;5012302;28;19933;-89
2022/12/04 08:15:47;;;;;;;;;;;7.40;55.50;;;;;;5003315;28;19984;-89
2022/12/04 08:18:13;;;;;;;;;;;7.40;55.40;;;;;;4999042;28;20364;-89
2022/12/04 08:20:39;;;;;;;;;;;7.50;55.50;;;;;;5024053;28;19924;-89
2022/12/04 08:23:04;;;;;;;;;;;7.50;55.50;;;;;;5016447;28;20016;-89
2022/12/04 08:25:30;;;;;;;;;;;7.50;55.50;;;;;;5027212;28;20495;-90
2022/12/04 08:27:55;;;;;;;;;;;7.50;55.60;;;;;;4994984;28;19925;-89
2022/12/04 08:30:21;;;;;;;;;;;7.60;55.50;;;;;;5008834;28;20341;-88
2022/12/04 08:32:47;;;;;;;;;;;7.60;55.40;;;;;;4998518;28;20013;-87
2022/12/04 08:35:12;;;;;;;;;;;7.60;55.30;;;;;;5015538;28;19922;-88
2022/12/04 08:37:38;;;;;;;;;;;7.60;55.30;;;;;;5008256;28;19913;-89
2022/12/04 08:40:04;;;;;;;;;;;7.60;55.40;;;;;;5012490;28;19913;-88
2022/12/04 08:42:29;;;;;;;;;;;7.70;55.30;;;;;;5015042;28;20006;-88
2022/12/04 08:44:55;;;;;;;;;;;7.60;55.50;;;;;;5020659;28;20366;-88
2022/12/04 08:47:20;;;;;;;;;;;7.60;55.50;;;;;;5001641;28;19917;-88
2022/12/04 08:49:51;;;;;;;;;;;7.60;55.50;;;;;;4999446;28;19914;-89
2022/12/04 08:52:17;;;;;;;;;;;7.60;55.50;;;;;;5000672;28;19924;-89
2022/12/04 08:54:46;;;;;;;;;;;7.60;55.60;;;;;;5003018;28;19913;-88
2022/12/04 08:57:11;;;;;;;;;;;7.60;55.60;;;;;;4998745;28;19957;-88
2022/12/04 08:59:39;;;;;;;;;;;7.60;55.60;;;;;;5028858;28;20699;-89
2022/12/04 09:02:04;;;;;;;;;;;7.70;55.60;;;;;;5011211;28;20364;-88
2022/12/04 09:04:30;;;;;;;;;;;7.70;55.60;;;;;;4994118;28;20004;-88
2022/12/04 09:06:56;;;;;;;;;;;7.70;55.60;;;;;;5010804;28;19913;-89
2022/12/04 09:09:21;;;;;;;;;;;7.70;55.60;;;;;;5012622;28;20408;-88
2022/12/04 09:11:50;;;;;;;;;;;7.70;55.50;;;;;;4988899;28;19921;-88
2022/12/04 09:14:15;;;;;;;;;;;7.80;55.50;;;;;;5010912;28;19921;-89
2022/12/04 09:16:41;;;;;;;;;;;7.80;55.50;;;;;;5009068;28;20280;-88
2022/12/04 09:19:07;;;;;;;;;;;7.80;55.50;;;;;;5004022;28;19919;-88
2022/12/04 09:21:32;;;;;;;;;;;7.80;55.50;;;;;;5006937;28;19956;-89
2022/12/04 09:23:59;;;;;;;;;;;7.90;55.30;;;;;;4999482;28;19918;-88
2022/12/04 09:26:26;;;;;;;;;;;7.80;55.40;;;;;;4986746;28;19964;-87
2022/12/04 09:28:52;;;;;;;;;;;7.90;55.30;;;;;;5006427;28;20361;-89
2022/12/04 09:31:18;;;;;;;;;;;8.00;55.30;;;;;;5002624;28;19909;-87
2022/12/04 09:33:44;;;;;;;;;;;8.00;55.20;;;;;;5007551;28;20073;-89
2022/12/04 09:36:15;;;;;;;;;;;8.00;55.10;;;;;;4993088;28;19925;-88
2022/12/04 09:38:42;;;;;;;;;;;8.00;55.20;;;;;;4999127;28;19928;-88
2022/12/04 09:41:13;;;;;;;;;;;8.10;55.30;;;;;;5003906;28;19919;-88
2022/12/04 09:43:45;;;;;;;;;;;8.10;55.00;;;;;;5014122;28;19971;-88
2022/12/04 09:46:16;;;;;;;;;;;8.20;54.90;;;;;;5016821;28;20005;-88
2022/12/04 09:48:43;;;;;;;;;;;8.20;54.70;;;;;;4994618;28;19914;-88
2022/12/04 09:51:17;;;;;;;;;;;8.20;54.80;;;;;;5009470;28;19916;-89
2022/12/04 09:53:46;;;;;;;;;;;8.30;54.80;;;;;;4980343;28;19924;-88
2022/12/04 09:56:18;;;;;;;;;;;8.30;54.60;;;;;;5002881;28;19917;-88
2022/12/04 09:58:57;;;;;;;;;;;8.30;54.70;;;;;;5023863;28;19983;-89
2022/12/04 10:01:25;;;;;;;;;;;8.30;54.80;;;;;;4995762;28;19921;-89
2022/12/04 10:03:52;;;;;;;;;;;8.40;54.40;;;;;;5005111;28;19940;-88
2022/12/04 10:06:33;;;;;;;;;;;8.40;54.30;;;;;;5005389;28;19910;-88
2022/12/04 10:09:10;;;;;;;;;;;8.40;54.10;;;;;;5009241;28;19947;-89
2022/12/04 10:11:58;;;;;;;;;;;8.40;54.20;;;;;;4995785;28;19918;-89
2022/12/04 10:14:32;;;;;;;;;;;8.40;54.20;;;;;;5021638;28;20003;-89
2022/12/04 10:17:13;;;;;;;;;;;8.40;54.30;;;;;;5016327;28;19917;-88
2022/12/04 10:19:50;;;;;;;;;;;8.40;54.10;;;;;;4997363;28;20003;-88
2022/12/04 10:22:32;;;;;;;;;;;8.40;54.30;;;;;;5004795;28;20438;-87
2022/12/04 10:25:05;;;;;;;;;;;8.40;54.50;;;;;;5012921;28;19914;-89
2022/12/04 10:27:33;;;;;;;;;;;8.30;54.20;;;;;;5016968;28;20360;-89
2022/12/04 10:30:06;;;;;;;;;;;8.40;54.30;;;;;;5012923;28;20077;-88
2022/12/04 10:32:32;;;;;;;;;;;8.40;54.30;;;;;;4998644;28;20016;-87
2022/12/04 10:35:14;;;;;;;;;;;8.40;54.30;;;;;;5015320;28;19992;-88
2022/12/04 10:37:41;;;;;;;;;;;8.40;54.40;;;;;;4995165;28;19924;-89
2022/12/04 10:40:12;;;;;;;;;;;8.50;54.30;;;;;;5004304;28;19917;-89
2022/12/04 10:42:42;;;;;;;;;;;8.50;54.30;;;;;;5024656;28;19910;-86
2022/12/04 10:45:09;;;;;;;;;;;8.50;54.20;;;;;;5003564;28;19929;-90
2022/12/04 10:47:38;;;;;;;;;;;8.50;54.20;;;;;;4994265;28;19913;-89
2022/12/04 10:50:12;;;;;;;;;;;8.60;54.20;;;;;;5005597;28;20364;-88
2022/12/04 10:52:37;;;;;;;;;;;8.60;54.20;;;;;;5009917;28;20271;-90
2022/12/04 10:55:03;;;;;;;;;;;8.60;54.10;;;;;;4999876;28;19921;-89
2022/12/04 10:57:38;;;;;;;;;;;8.60;54.10;;;;;;5012508;28;19917;-86
2022/12/04 11:00:21;;;;;;;;;;;8.60;54.10;;;;;;4995926;28;19960;-88
2022/12/04 11:02:47;;;;;;;;;;;8.70;54.20;;;;;;5015041;28;19917;-88
2022/12/04 11:05:28;;;;;;;;;;;8.70;54.30;;;;;;5001544;28;20045;-89
2022/12/04 11:07:54;;;;;;;;;;;8.70;54.20;;;;;;5003800;28;19920;-89
2022/12/04 11:10:28;;;;;;;;;;;8.70;54.10;;;;;;4993981;28;19921;-88
2022/12/04 11:13:00;;;;;;;;;;;8.70;53.90;;;;;;5012646;28;19921;-89
2022/12/04 11:15:25;;;;;;;;;;;8.80;53.80;;;;;;5001562;28;20391;-88
2022/12/04 11:17:51;;;;;;;;;;;8.70;53.80;;;;;;5018301;28;19917;-89
2022/12/04 11:20:17;;;;;;;;;;;8.70;53.70;;;;;;4995497;28;20288;-88
2022/12/04 11:23:00;;;;;;;;;;;8.70;53.80;;;;;;4993887;28;19914;-88
2022/12/04 11:25:29;;;;;;;;;;;8.70;53.70;;;;;;4993955;28;19913;-87
2022/12/04 11:27:57;;;;;;;;;;;8.70;53.80;;;;;;5015247;28;19914;-89
2022/12/04 11:30:31;;;;;;;;;;;8.70;53.70;;;;;;4995827;28;20450;-90
2022/12/04 11:32:57;;;;;;;;;;;8.70;53.50;;;;;;4999537;28;19914;-89
2022/12/04 11:35:24;;;;;;;;;;;8.70;53.50;;;;;;4991017;28;19933;-90
2022/12/04 11:37:56;;;;;;;;;;;8.70;53.50;;;;;;4986387;28;20280;-88
2022/12/04 11:40:22;;;;;;;;;;;8.70;53.60;;;;;;4986001;28;19929;-88
2022/12/04 11:42:59;;;;;;;;;;;8.70;53.70;;;;;;4988653;28;19924;-87
2022/12/04 11:45:25;;;;;;;;;;;8.60;53.70;;;;;;4989653;28;20041;-87
2022/12/04 11:47:54;;;;;;;;;;;8.60;53.70;;;;;;5008933;28;19917;-88
2022/12/04 11:50:32;;;;;;;;;;;8.70;53.90;;;;;;5006295;28;19922;-89
2022/12/04 11:52:58;;;;;;;;;;;8.70;53.70;;;;;;5005670;28;20253;-89
2022/12/04 11:55:42;;;;;;;;;;;8.70;53.70;;;;;;4981700;28;19967;-88
2022/12/04 11:58:11;;;;;;;;;;;8.70;53.60;;;;;;4974446;28;19917;-87
2022/12/04 12:00:43;;;;;;;;;;;8.70;53.70;;;;;;5017760;28;19925;-88
2022/12/04 12:03:14;;;;;;;;;;;8.60;53.70;;;;;;4997689;28;19992;-89
2022/12/04 12:05:52;;;;;;;;;;;8.70;53.90;;;;;;4997463;28;19925;-88
2022/12/04 12:08:21;;;;;;;;;;;8.70;53.90;;;;;;5005298;28;19917;-88
2022/12/04 12:10:57;;;;;;;;;;;8.70;53.80;;;;;;5003491;28;19921;-89
2022/12/04 12:13:41;;;;;;;;;;;8.70;53.50;;;;;;5010088;28;20015;-88
2022/12/04 12:16:26;;;;;;;;;;;8.70;53.60;;;;;;5019317;28;19929;-89
2022/12/04 12:19:10;;;;;;;;;;;8.70;53.70;;;;;;5007397;28;19972;-88
2022/12/04 12:21:39;;;;;;;;;;;8.70;53.70;;;;;;5014417;28;19972;-87
2022/12/04 12:24:23;;;;;;;;;;;8.70;53.70;;;;;;4993454;28;19918;-90
2022/12/04 12:27:08;;;;;;;;;;;8.70;53.60;;;;;;4991440;28;20400;-89
2022/12/04 12:29:45;;;;;;;;;;;8.70;53.70;;;;;;4993587;28;19921;-90
2022/12/04 12:32:11;;;;;;;;;;;8.70;53.60;;;;;;5016560;28;19952;-88
2022/12/04 12:34:39;;;;;;;;;;;8.70;53.50;;;;;;5001835;28;19967;-89
2022/12/04 12:37:11;;;;;;;;;;;8.60;53.50;;;;;;5005797;28;19913;-89
2022/12/04 12:39:42;;;;;;;;;;;8.60;53.60;;;;;;4993893;28;20612;-88
2022/12/04 12:42:14;;;;;;;;;;;8.60;53.60;;;;;;5009666;28;20376;-88
2022/12/04 12:44:49;;;;;;;;;;;8.60;53.60;;;;;;5015127;28;19957;-90
2022/12/04 12:47:20;;;;;;;;;;;8.60;53.70;;;;;;4995307;28;19924;-88
2022/12/04 12:49:52;;;;;;;;;;;8.60;53.80;;;;;;5007560;28;19921;-88
2022/12/04 12:52:21;;;;;;;;;;;8.60;53.80;;;;;;5009142;28;20372;-87
2022/12/04 12:55:05;;;;;;;;;;;8.60;53.70;;;;;;4990853;28;19972;-89
2022/12/04 12:57:40;;;;;;;;;;;8.60;53.70;;;;;;4994600;28;20364;-87
2022/12/04 13:00:14;;;;;;;;;;;8.60;53.60;;;;;;5023744;28;20132;-89
2022/12/04 13:02:44;;;;;;;;;;;8.50;53.60;;;;;;5008802;28;19971;-89
2022/12/04 13:05:12;;;;;;;;;;;8.50;53.50;;;;;;5000275;28;19925;-88
2022/12/04 13:07:43;;;;;;;;;;;8.60;53.70;;;;;;5009570;28;20411;-87
2022/12/04 13:10:14;;;;;;;;;;;8.60;53.60;;;;;;4994753;28;19971;-89
2022/12/04 13:12:43;;;;;;;;;;;8.50;53.50;;;;;;4988928;28;20601;-88
2022/12/04 13:15:17;;;;;;;;;;;8.50;53.60;;;;;;4986497;28;20493;-89
2022/12/04 13:17:44;;;;;;;;;;;8.60;53.50;;;;;;4980248;28;20387;-88
2022/12/04 13:20:16;;;;;;;;;;;8.60;53.60;;;;;;4990659;28;20478;-88
2022/12/04 13:22:54;;;;;;;;;;;8.60;53.40;;;;;;4989059;28;20478;-89
2022/12/04 13:25:38;;;;;;;;;;;8.60;53.50;;;;;;5007221;28;19925;-88
2022/12/04 13:28:07;;;;;;;;;;;8.60;53.60;;;;;;5012348;28;19917;-89
2022/12/04 13:30:35;;;;;;;;;;;8.60;53.50;;;;;;5027665;28;19917;-89
2022/12/04 13:33:07;;;;;;;;;;;8.60;53.50;;;;;;4989771;28;20000;-87
2022/12/04 13:35:51;;;;;;;;;;;8.50;53.50;;;;;;4984869;28;20591;-88
2022/12/04 13:38:38;;;;;;;;;;;8.60;53.70;;;;;;5002889;28;19949;-88
2022/12/04 13:41:05;;;;;;;;;;;8.60;53.60;;;;;;5005512;28;20384;-89
2022/12/04 13:43:34;;;;;;;;;;;8.60;53.60;;;;;;5007468;28;19928;-87
2022/12/04 13:46:07;;;;;;;;;;;8.50;53.50;;;;;;4994117;28;19918;-88
2022/12/04 13:48:34;;;;;;;;;;;8.50;53.50;;;;;;4990606;28;20008;-89
2022/12/04 13:51:00;;;;;;;;;;;8.50;53.60;;;;;;5003302;28;20409;-88
2022/12/04 13:53:36;;;;;;;;;;;8.50;53.70;;;;;;5026703;28;19917;-89
2022/12/04 13:56:03;;;;;;;;;;;8.50;53.60;;;;;;5001299;28;19936;-88
2022/12/04 13:58:30;;;;;;;;;;;8.50;53.40;;;;;;5002144;28;19921;-88
2022/12/04 14:01:16;;;;;;;;;;;8.50;53.70;;;;;;5005726;28;19979;-88
2022/12/04 14:03:49;;;;;;;;;;;8.50;53.60;;;;;;4984069;28;19921;-89
2022/12/04 14:06:23;;;;;;;;;;;8.50;53.70;;;;;;4993482;28;19920;-87
2022/12/04 14:08:53;;;;;;;;;;;8.40;53.60;;;;;;5007432;28;20037;-89
2022/12/04 14:11:19;;;;;;;;;;;8.40;53.60;;;;;;4990504;28;19914;-88
2022/12/04 14:13:46;;;;;;;;;;;8.40;53.70;;;;;;4990276;28;19924;-89
2022/12/04 14:16:34;;;;;;;;;;;8.30;53.90;;;;;;5007669;28;19925;-87
2022/12/04 14:19:00;;;;;;;;;;;8.30;54.00;;;;;;5008656;28;20664;-89
2022/12/04 14:21:37;;;;;;;;;;;8.30;53.90;;;;;;5001936;28;19917;-90
2022/12/04 14:24:14;;;;;;;;;;;8.30;53.90;;;;;;4989648;28;20648;-88
2022/12/04 14:26:47;;;;;;;;;;;8.20;54.10;;;;;;4991661;28;20009;-89
2022/12/04 14:29:21;;;;;;;;;;;8.20;54.00;;;;;;4989158;28;19922;-88
2022/12/04 14:31:48;;;;;;;;;;;8.30;54.00;;;;;;4989702;28;19957;-88
2022/12/04 14:34:21;;;;;;;;;;;8.30;54.10;;;;;;5000874;28;19964;-90
2022/12/04 14:36:48;;;;;;;;;;;8.30;54.10;;;;;;5022837;28;20008;-88
2022/12/04 14:39:19;;;;;;;;;;;8.30;54.10;;;;;;5008375;28;19925;-89
2022/12/04 14:41:45;;;;;;;;;;;8.20;54.10;;;;;;4990545;28;19980;-89
2022/12/04 14:44:20;;;;;;;;;;;8.30;54.10;;;;;;4991076;28;20265;-88
2022/12/04 14:46:49;;;;;;;;;;;8.20;54.20;;;;;;5004365;28;19917;-87
2022/12/04 14:49:14;;;;;;;;;;;8.20;54.20;;;;;;4989689;28;20408;-88
2022/12/04 14:51:48;;;;;;;;;;;8.20;54.30;;;;;;4993837;28;20643;-89
2022/12/04 14:54:32;;;;;;;;;;;8.20;54.40;;;;;;5009774;28;19921;-88
2022/12/04 14:57:08;;;;;;;;;;;8.20;54.50;;;;;;5003837;28;19925;-89